Time;durP1;ratioP1;P1;durP2;ratioP2;P2;SDS_P1;SDS_P2;PMS_P1;PMS_P2;Temp;Humidity;BMP_temperature;BMP_pressure;BME280_temperature;BME280_humidity;BME280_pressure;Samples;Min_cycle;Max_cycle;Signal;HPM_P1;HPM_P2
2022/11/09 00:01:41;;;;;;;8.35;3.78;;;10.40;89.90;;;;;;5102853;27;20046;-63
2022/11/09 00:04:09;;;;;;;9.13;4.18;;;10.40;89.90;;;;;;5102919;27;20650;-61
2022/11/09 00:06:36;;;;;;;8.63;4.25;;;10.40;89.90;;;;;;5102967;27;20050;-63
2022/11/09 00:09:05;;;;;;;6.13;3.97;;;10.40;89.90;;;;;;5104068;27;20047;-62
2022/11/09 00:11:32;;;;;;;7.93;3.88;;;10.40;89.80;;;;;;5103832;27;20051;-62
2022/11/09 00:14:03;;;;;;;8.43;4.25;;;10.40;89.80;;;;;;5101811;28;20079;-62
2022/11/09 00:16:30;;;;;;;6.47;3.42;;;10.40;89.80;;;;;;5101826;27;20409;-59
2022/11/09 00:18:57;;;;;;;6.15;3.30;;;10.30;89.80;;;;;;5100396;27;20050;-59
2022/11/09 00:21:25;;;;;;;6.13;3.30;;;10.30;89.80;;;;;;5104439;27;20079;-62
2022/11/09 00:23:52;;;;;;;8.95;3.53;;;10.20;89.80;;;;;;5102242;27;20036;-62
2022/11/09 00:26:20;;;;;;;6.30;3.30;;;10.20;89.70;;;;;;5105081;27;20597;-69
2022/11/09 00:28:48;;;;;;;6.90;3.30;;;10.20;89.70;;;;;;5102266;27;20047;-69
2022/11/09 00:31:18;;;;;;;6.65;2.90;;;10.20;89.80;;;;;;5104702;27;20054;-61
2022/11/09 00:33:48;;;;;;;6.90;3.10;;;10.20;89.80;;;;;;5104376;27;20044;-63
2022/11/09 00:36:16;;;;;;;5.70;3.13;;;10.20;89.90;;;;;;5100389;28;20039;-63
2022/11/09 00:38:48;;;;;;;6.78;3.25;;;10.20;89.90;;;;;;5104453;27;20047;-62
2022/11/09 00:41:15;;;;;;;5.82;2.90;;;10.20;90.00;;;;;;5087376;27;20043;-59
2022/11/09 00:43:42;;;;;;;6.57;2.78;;;10.20;90.00;;;;;;5098642;28;20044;-60
2022/11/09 00:46:09;;;;;;;5.88;2.83;;;10.20;90.00;;;;;;5100871;27;20032;-61
2022/11/09 00:48:37;;;;;;;6.15;2.83;;;10.20;90.10;;;;;;5106756;27;20406;-62
2022/11/09 00:51:05;;;;;;;4.97;2.75;;;10.20;90.40;;;;;;5103423;27;20050;-65
2022/11/09 00:53:32;;;;;;;5.38;2.53;;;10.20;90.40;;;;;;5107786;27;20097;-63
2022/11/09 00:56:01;;;;;;;7.50;2.60;;;10.20;90.40;;;;;;5106817;27;20490;-62
2022/11/09 00:58:37;;;;;;;6.38;2.75;;;10.30;90.40;;;;;;5107802;28;20052;-61
2022/11/09 01:01:07;;;;;;;6.05;3.03;;;10.30;90.30;;;;;;5123596;27;20101;-61
2022/11/09 01:03:34;;;;;;;;;;;10.30;90.30;;;;;;5102539;27;20040;-61
2022/11/09 01:06:04;;;;;;;7.18;2.83;;;10.30;90.50;;;;;;5107591;27;20358;-60
2022/11/09 01:08:32;;;;;;;5.90;2.80;;;10.30;90.50;;;;;;5106738;27;20124;-61
2022/11/09 01:11:05;;;;;;;6.25;3.13;;;10.40;90.30;;;;;;5095832;27;20050;-68
2022/11/09 01:13:32;;;;;;;7.18;2.80;;;10.40;90.20;;;;;;5098118;27;20375;-69
2022/11/09 01:15:59;;;;;;;5.93;2.70;;;10.40;90.50;;;;;;5104997;28;20066;-60
2022/11/09 01:18:27;;;;;;;6.35;2.97;;;10.40;90.50;;;;;;5105338;27;20154;-62
2022/11/09 01:20:54;;;;;;;7.32;2.78;;;10.40;90.50;;;;;;5103780;27;20047;-69
2022/11/09 01:23:22;;;;;;;5.93;2.80;;;10.40;90.40;;;;;;5104691;27;20502;-69
2022/11/09 01:25:56;;;;;;;5.57;3.10;;;10.40;90.50;;;;;;5107726;27;20052;-61
2022/11/09 01:28:23;;;;;;;6.53;2.67;;;10.50;90.80;;;;;;5106789;27;20066;-61
2022/11/09 01:30:50;;;;;;;5.97;2.72;;;10.40;90.80;;;;;;5105150;27;20048;-62
2022/11/09 01:33:17;;;;;;;6.32;3.10;;;10.40;90.80;;;;;;5124329;27;20071;-61
2022/11/09 01:35:44;;;;;;;5.65;2.85;;;10.40;90.80;;;;;;5130135;27;20048;-62
2022/11/09 01:38:12;;;;;;;7.30;3.28;;;10.50;90.80;;;;;;5100954;27;20410;-63
2022/11/09 01:40:41;;;;;;;7.03;3.63;;;10.50;90.80;;;;;;5108274;28;20051;-64
2022/11/09 01:43:19;;;;;;;7.25;3.17;;;10.50;90.90;;;;;;5104239;27;20039;-64
2022/11/09 01:45:49;;;;;;;6.10;3.00;;;10.50;90.90;;;;;;5104239;28;20049;-63
2022/11/09 01:48:20;;;;;;;5.60;2.60;;;10.40;90.90;;;;;;5108786;27;20138;-64
2022/11/09 01:50:55;;;;;;;7.88;3.20;;;10.40;90.90;;;;;;5106670;27;20071;-61
2022/11/09 01:53:27;;;;;;;6.68;3.22;;;10.40;90.90;;;;;;5105047;27;20150;-61
2022/11/09 01:55:58;;;;;;;4.97;2.75;;;10.50;90.80;;;;;;5106872;28;20051;-67
2022/11/09 01:58:30;;;;;;;7.50;3.15;;;10.50;90.80;;;;;;5107708;27;20453;-67
2022/11/09 02:00:59;;;;;;;7.30;3.25;;;10.50;90.80;;;;;;5105244;27;20139;-62
2022/11/09 02:03:32;;;;;;;5.35;2.40;;;10.50;90.90;;;;;;5104778;27;20051;-62
2022/11/09 02:06:02;;;;;;;5.30;2.67;;;10.50;90.90;;;;;;5106485;27;20044;-70
2022/11/09 02:08:29;;;;;;;7.57;3.13;;;10.50;90.90;;;;;;5105822;27;20047;-69
2022/11/09 02:11:04;;;;;;;6.68;2.67;;;10.60;90.80;;;;;;5107860;27;20130;-67
2022/11/09 02:13:32;;;;;;;5.65;2.70;;;10.60;90.80;;;;;;5089081;28;20150;-66
2022/11/09 02:16:04;;;;;;;5.18;2.45;;;10.50;90.80;;;;;;5121449;27;20047;-70
2022/11/09 02:18:32;;;;;;;6.68;2.80;;;10.60;91.10;;;;;;5098490;27;21281;-70
2022/11/09 02:21:02;;;;;;;7.55;2.60;;;10.60;91.10;;;;;;5105706;28;20043;-62
2022/11/09 02:23:30;;;;;;;5.63;2.65;;;10.60;91.20;;;;;;5104304;27;20049;-62
2022/11/09 02:26:02;;;;;;;6.50;2.70;;;10.50;91.30;;;;;;5106315;28;20040;-68
2022/11/09 02:28:31;;;;;;;6.60;2.92;;;10.60;91.30;;;;;;5107198;27;20141;-68
2022/11/09 02:30:59;;;;;;;5.13;2.72;;;10.60;91.20;;;;;;5106996;28;20124;-62
2022/11/09 02:33:26;;;;;;;6.07;3.03;;;10.60;91.20;;;;;;5103026;27;20097;-63
2022/11/09 02:35:54;;;;;;;4.95;2.65;;;10.60;91.20;;;;;;5105973;27;20120;-59
2022/11/09 02:38:23;;;;;;;5.30;2.85;;;10.60;91.20;;;;;;5101904;27;20120;-60
2022/11/09 02:40:52;;;;;;;6.93;2.97;;;10.50;91.30;;;;;;5106688;27;20048;-62
2022/11/09 02:43:23;;;;;;;6.45;2.55;;;10.60;91.30;;;;;;5103894;27;20062;-62
2022/11/09 02:45:50;;;;;;;6.47;2.63;;;10.60;91.20;;;;;;5105373;27;20043;-68
2022/11/09 02:48:17;;;;;;;7.47;2.95;;;10.60;91.30;;;;;;5102175;27;20055;-68
2022/11/09 02:50:44;;;;;;;7.70;2.53;;;10.50;91.30;;;;;;5103839;27;20406;-64
2022/11/09 02:53:10;;;;;;;5.85;2.67;;;10.60;91.30;;;;;;5107193;27;20129;-64
2022/11/09 02:55:44;;;;;;;6.03;2.80;;;10.60;91.30;;;;;;5107180;28;20130;-61
2022/11/09 02:58:12;;;;;;;6.77;2.60;;;10.50;91.30;;;;;;5105551;27;20063;-61
2022/11/09 03:00:39;;;;;;;5.63;2.65;;;10.60;91.20;;;;;;5106086;27;20516;-63
2022/11/09 03:03:07;;;;;;;6.10;2.92;;;10.60;91.20;;;;;;5101297;27;20047;-65
2022/11/09 03:05:34;;;;;;;7.03;2.50;;;10.60;91.40;;;;;;5105038;28;20054;-60
2022/11/09 03:08:02;;;;;;;5.90;2.65;;;10.60;91.40;;;;;;5103557;28;20040;-61
2022/11/09 03:10:30;;;;;;;6.55;2.70;;;10.60;91.10;;;;;;5102988;28;20055;-69
2022/11/09 03:12:59;;;;;;;5.68;2.88;;;10.60;91.30;;;;;;5108101;27;20097;-68
2022/11/09 03:15:26;;;;;;;4.80;2.38;;;10.60;91.30;;;;;;5108854;27;20044;-60
2022/11/09 03:17:53;;;;;;;6.55;2.88;;;10.60;91.40;;;;;;5105379;28;20375;-63
2022/11/09 03:20:21;;;;;;;5.65;2.85;;;10.60;91.30;;;;;;5105821;27;20112;-64
2022/11/09 03:22:48;;;;;;;7.60;3.00;;;10.60;91.30;;;;;;5106661;27;20417;-63
2022/11/09 03:25:16;;;;;;;5.40;2.40;;;10.60;91.20;;;;;;5101588;27;20058;-64
2022/11/09 03:27:43;;;;;;;5.40;2.60;;;10.60;91.30;;;;;;5101772;27;20039;-63
2022/11/09 03:30:13;;;;;;;4.72;2.45;;;10.60;91.30;;;;;;5119472;27;20123;-61
2022/11/09 03:32:41;;;;;;;7.97;3.03;;;10.60;91.30;;;;;;5119982;27;20055;-61
2022/11/09 03:35:09;;;;;;;6.40;2.55;;;10.60;91.40;;;;;;5103015;27;20123;-61
2022/11/09 03:37:36;;;;;;;7.85;2.60;;;10.60;91.40;;;;;;5102376;27;20066;-60
2022/11/09 03:40:04;;;;;;;4.97;2.60;;;10.50;91.40;;;;;;5104147;28;20057;-60
2022/11/09 03:42:31;;;;;;;4.95;2.75;;;10.50;91.40;;;;;;5106472;27;20426;-60
2022/11/09 03:44:58;;;;;;;5.53;2.38;;;10.60;91.30;;;;;;5104834;28;20610;-60
2022/11/09 03:47:26;;;;;;;5.32;2.30;;;10.60;91.30;;;;;;5103018;27;20055;-61
2022/11/09 03:49:53;;;;;;;6.70;2.75;;;10.60;91.30;;;;;;5104242;27;20043;-61
2022/11/09 03:52:20;;;;;;;5.53;2.22;;;10.60;91.30;;;;;;5102110;27;20044;-63
2022/11/09 03:54:47;;;;;;;5.43;2.35;;;10.60;91.30;;;;;;5104588;27;20043;-63
2022/11/09 03:57:14;;;;;;;6.45;2.50;;;10.60;91.30;;;;;;5103777;28;20056;-62
2022/11/09 03:59:40;;;;;;;5.70;2.40;;;10.60;91.30;;;;;;5105955;27;20047;-61
2022/11/09 04:02:07;;;;;;;5.25;2.60;;;10.60;91.40;;;;;;5102808;27;20055;-64
2022/11/09 04:04:36;;;;;;;6.35;2.90;;;10.60;91.40;;;;;;5102698;27;20059;-63
2022/11/09 04:07:02;;;;;;;6.25;2.40;;;10.60;91.40;;;;;;5103372;27;20047;-68
2022/11/09 04:09:29;;;;;;;4.40;2.63;;;10.60;91.40;;;;;;5094851;28;20126;-70
2022/11/09 04:11:58;;;;;;;4.78;2.28;;;10.60;91.20;;;;;;5120617;27;20051;-61
2022/11/09 04:14:25;;;;;;;4.40;2.75;;;10.60;91.30;;;;;;5105237;27;20052;-61
2022/11/09 04:16:52;;;;;;;4.03;2.20;;;10.60;91.00;;;;;;5116944;27;20111;-60
2022/11/09 04:19:19;;;;;;;5.93;2.67;;;10.60;90.90;;;;;;5125675;27;20111;-62
2022/11/09 04:21:47;;;;;;;5.90;2.60;;;10.60;90.80;;;;;;5117260;27;20059;-62
2022/11/09 04:24:14;;;;;;;6.45;2.60;;;10.60;91.00;;;;;;5109499;27;20043;-62
2022/11/09 04:26:41;;;;;;;6.75;3.00;;;10.60;91.30;;;;;;5105473;27;20044;-68
2022/11/09 04:29:08;;;;;;;8.02;2.97;;;10.60;91.50;;;;;;5107824;27;20050;-67
2022/11/09 04:31:35;;;;;;;5.53;2.97;;;10.60;91.40;;;;;;5111230;27;20046;-62
2022/11/09 04:34:02;;;;;;;6.50;2.90;;;10.60;91.30;;;;;;5111192;27;20040;-63
2022/11/09 04:36:29;;;;;;;7.60;2.42;;;10.60;91.40;;;;;;5108302;27;20097;-61
2022/11/09 04:38:57;;;;;;;4.97;2.40;;;10.60;91.50;;;;;;5109688;27;20486;-61
2022/11/09 04:41:24;;;;;;;4.97;2.55;;;10.60;91.60;;;;;;5108318;27;20043;-60
2022/11/09 04:43:51;;;;;;;5.97;2.40;;;10.60;91.60;;;;;;5105523;27;20036;-59
2022/11/09 04:46:18;;;;;;;4.97;2.40;;;10.60;91.50;;;;;;5106277;27;20073;-69
2022/11/09 04:48:44;;;;;;;5.03;2.53;;;10.60;91.50;;;;;;5107266;27;20047;-69
2022/11/09 04:51:11;;;;;;;6.15;2.38;;;10.70;91.60;;;;;;5103625;27;20051;-61
2022/11/09 04:53:39;;;;;;;5.32;2.28;;;10.60;91.70;;;;;;5107399;27;20031;-61
2022/11/09 04:56:08;;;;;;;5.90;2.70;;;10.60;91.60;;;;;;5109091;27;20516;-62
2022/11/09 04:58:37;;;;;;;6.47;2.50;;;10.60;91.70;;;;;;5100984;27;20135;-63
2022/11/09 05:01:06;;;;;;;5.53;2.45;;;10.70;91.90;;;;;;5117467;27;20059;-63
2022/11/09 05:03:34;;;;;;;6.85;2.47;;;10.60;91.70;;;;;;5106326;27;20131;-60
2022/11/09 05:06:30;;;;;;;3.90;2.20;;;10.60;91.70;;;;;;5111253;27;20039;-60
2022/11/09 05:08:47;;;;;;;7.10;2.72;;;10.60;91.80;;;;;;5106708;27;20506;-61
2022/11/09 05:11:16;;;;;;;5.78;2.67;;;10.60;91.60;;;;;;5105517;27;20051;-68
2022/11/09 05:13:43;;;;;;;4.53;2.35;;;10.60;91.60;;;;;;5105249;27;20059;-67
2022/11/09 05:16:10;;;;;;;5.60;2.67;;;10.70;91.60;;;;;;5125477;27;20158;-63
2022/11/09 05:18:37;;;;;;;5.80;2.70;;;10.70;91.60;;;;;;5106964;27;20116;-64
2022/11/09 05:21:04;;;;;;;4.75;2.38;;;10.70;91.60;;;;;;5103760;27;20045;-63
2022/11/09 05:26:16;;;;;;;7.15;2.70;;;10.70;91.40;;;;;;5110605;27;20043;-60
2022/11/09 05:28:43;;;;;;;6.78;2.75;;;10.70;91.60;;;;;;5106776;27;20047;-61
2022/11/09 05:31:10;;;;;;;7.65;2.90;;;10.60;91.70;;;;;;5105443;27;20044;-60
2022/11/09 05:33:37;;;;;;;5.63;2.70;;;10.70;91.60;;;;;;5107474;27;20116;-59
2022/11/09 05:36:05;;;;;;;7.20;2.88;;;10.70;91.60;;;;;;5108473;27;20056;-66
2022/11/09 05:38:32;;;;;;;5.35;2.58;;;10.70;91.70;;;;;;5106437;27;20040;-61
2022/11/09 05:41:01;;;;;;;7.65;3.08;;;10.60;91.80;;;;;;5107391;27;20725;-61
2022/11/09 05:43:31;;;;;;;5.50;2.72;;;10.70;91.90;;;;;;5104557;27;20097;-60
2022/11/09 05:45:58;;;;;;;7.95;3.00;;;10.60;91.80;;;;;;5105269;27;20122;-63
2022/11/09 05:48:25;;;;;;;7.05;2.90;;;10.60;91.80;;;;;;5103998;27;20157;-63
2022/11/09 05:50:52;;;;;;;8.20;2.90;;;10.60;91.80;;;;;;5104593;27;20058;-69
2022/11/09 05:53:24;;;;;;;6.82;3.75;;;10.60;91.80;;;;;;5107552;28;20044;-68
2022/11/09 05:55:51;;;;;;;6.22;2.70;;;10.70;91.80;;;;;;5108545;27;20421;-60
2022/11/09 05:58:19;;;;;;;7.30;2.70;;;10.60;91.80;;;;;;5104683;27;20047;-60
2022/11/09 06:00:47;;;;;;;5.97;2.90;;;10.60;91.70;;;;;;5106118;27;20439;-61
2022/11/09 06:03:14;;;;;;;8.07;3.58;;;10.70;91.60;;;;;;5105863;27;20097;-61
2022/11/09 06:05:41;;;;;;;6.90;2.88;;;10.70;91.70;;;;;;5107767;27;20131;-60
2022/11/09 06:08:11;;;;;;;6.10;2.65;;;10.60;91.70;;;;;;5107247;27;20058;-60
2022/11/09 06:10:38;;;;;;;;;;;10.70;91.70;;;;;;5104988;27;20062;-64
2022/11/09 06:13:05;;;;;;;6.28;3.20;;;10.60;91.60;;;;;;5105185;27;19931;-64
2022/11/09 06:15:33;;;;;;;7.35;3.15;;;10.60;91.60;;;;;;5106878;27;20471;-61
2022/11/09 06:18:01;;;;;;;6.75;2.80;;;10.60;91.60;;;;;;5106767;27;20037;-61
2022/11/09 06:20:29;;;;;;;7.95;3.45;;;10.60;91.40;;;;;;5100393;27;20784;-61
2022/11/09 06:22:57;;;;;;;6.03;3.00;;;10.60;91.30;;;;;;5107499;27;20043;-60
2022/11/09 06:25:24;;;;;;;7.03;3.15;;;10.60;91.50;;;;;;5106195;27;20048;-62
2022/11/09 06:27:54;;;;;;;6.72;3.20;;;10.60;91.50;;;;;;5107492;27;20051;-62
2022/11/09 06:30:22;;;;;;;8.70;4.60;;;10.60;91.30;;;;;;5104794;27;20378;-69
2022/11/09 06:32:49;;;;;;;9.23;4.30;;;10.60;91.20;;;;;;5106265;27;20085;-67
2022/11/09 06:35:17;;;;;;;8.27;4.15;;;10.60;91.40;;;;;;5106722;27;20039;-60
2022/11/09 06:37:44;;;;;;;6.90;3.85;;;10.60;91.60;;;;;;5107182;27;20067;-60
2022/11/09 06:40:13;;;;;;;6.30;3.45;;;10.60;91.70;;;;;;5106160;27;20143;-60
2022/11/09 06:42:41;;;;;;;6.43;3.17;;;10.60;91.60;;;;;;5103566;27;20067;-63
2022/11/09 06:45:09;;;;;;;6.80;3.25;;;10.60;91.90;;;;;;5103265;27;20047;-63
2022/11/09 06:47:36;;;;;;;6.72;3.20;;;10.60;91.80;;;;;;5104711;27;20081;-61
2022/11/09 06:50:08;;;;;;;8.18;3.20;;;10.60;91.80;;;;;;5105728;27;20036;-61
2022/11/09 06:52:36;;;;;;;7.25;3.55;;;10.60;91.80;;;;;;5103410;27;20097;-61
2022/11/09 06:55:03;;;;;;;5.78;3.08;;;10.60;91.80;;;;;;5104862;27;20036;-62
2022/11/09 06:57:30;;;;;;;7.05;3.17;;;10.60;91.70;;;;;;5105718;27;20044;-74
2022/11/09 06:59:59;;;;;;;8.50;3.33;;;10.60;91.70;;;;;;5105284;27;20577;-73
2022/11/09 07:02:26;;;;;;;6.93;3.30;;;10.60;91.70;;;;;;5127594;27;20034;-60
2022/11/09 07:04:53;;;;;;;8.18;3.28;;;10.60;91.70;;;;;;5117791;27;20694;-60
2022/11/09 07:07:20;;;;;;;5.88;3.22;;;10.60;91.90;;;;;;5108702;27;20493;-63
2022/11/09 07:09:48;;;;;;;8.40;3.00;;;10.70;91.80;;;;;;5107363;27;20060;-63
2022/11/09 07:12:16;;;;;;;5.57;3.20;;;10.60;91.80;;;;;;5106127;27;20410;-67
2022/11/09 07:14:43;;;;;;;6.93;3.35;;;10.70;91.70;;;;;;5104981;27;20088;-67
2022/11/09 07:17:10;;;;;;;7.95;3.70;;;10.60;91.90;;;;;;5107828;27;20139;-60
2022/11/09 07:19:37;;;;;;;5.65;3.22;;;10.70;91.90;;;;;;5104277;27;20047;-60
2022/11/09 07:22:06;;;;;;;9.05;3.40;;;10.70;91.90;;;;;;5104763;27;20494;-61
2022/11/09 07:24:33;;;;;;;6.22;3.20;;;10.70;91.80;;;;;;5105555;27;20090;-60
2022/11/09 07:27:02;;;;;;;7.13;3.85;;;10.70;91.90;;;;;;5104734;27;20482;-63
2022/11/09 07:29:29;;;;;;;6.85;3.50;;;10.70;91.80;;;;;;5102045;27;20805;-65
2022/11/09 07:31:56;;;;;;;9.15;3.92;;;10.70;91.90;;;;;;5102555;27;20447;-59
2022/11/09 07:34:23;;;;;;;7.60;4.20;;;10.70;92.00;;;;;;5103793;27;20044;-59
2022/11/09 07:36:53;;;;;;;7.60;3.85;;;10.70;92.00;;;;;;5105216;27;20051;-60
2022/11/09 07:39:20;;;;;;;9.23;4.45;;;10.70;91.90;;;;;;5092119;27;20131;-59
2022/11/09 07:41:47;;;;;;;9.32;3.95;;;10.80;91.80;;;;;;5106375;27;20055;-61
2022/11/09 07:44:17;;;;;;;8.45;4.00;;;10.80;91.80;;;;;;5093278;27;20062;-62
2022/11/09 07:46:44;;;;;;;8.13;3.72;;;10.80;91.80;;;;;;5104243;27;20071;-69
2022/11/09 07:49:12;;;;;;;7.95;3.97;;;10.80;91.70;;;;;;5100938;27;20074;-68
2022/11/09 07:51:39;;;;;;;9.02;3.70;;;10.80;91.80;;;;;;5103646;27;20051;-62
2022/11/09 07:54:07;;;;;;;7.68;3.25;;;10.80;91.80;;;;;;5102980;27;20054;-63
2022/11/09 07:56:34;;;;;;;7.45;3.65;;;10.90;91.80;;;;;;5110727;27;20463;-60
2022/11/09 07:59:01;;;;;;;8.30;3.90;;;10.90;91.90;;;;;;5114473;27;20051;-60
2022/11/09 08:01:30;;;;;;;8.35;3.88;;;10.90;91.80;;;;;;5110344;27;20116;-63
2022/11/09 08:03:57;;;;;;;7.78;4.35;;;10.90;91.90;;;;;;5105916;27;20134;-64
2022/11/09 08:06:26;;;;;;;9.05;4.10;;;10.90;91.90;;;;;;5110596;27;20070;-62
2022/11/09 08:08:54;;;;;;;7.47;4.15;;;11.00;91.90;;;;;;5106561;27;20092;-62
2022/11/09 08:11:21;;;;;;;7.35;4.05;;;11.00;91.80;;;;;;5113251;27;20047;-66
2022/11/09 08:13:48;;;;;;;11.07;4.13;;;11.00;91.90;;;;;;5108663;27;20127;-66
2022/11/09 08:16:15;;;;;;;9.75;4.60;;;11.10;91.90;;;;;;5111964;27;20043;-68
2022/11/09 08:18:43;;;;;;;9.73;4.07;;;11.10;91.90;;;;;;5111546;27;20059;-68
2022/11/09 08:21:10;;;;;;;6.22;3.50;;;11.10;91.90;;;;;;5109937;27;20054;-60
2022/11/09 08:23:37;;;;;;;7.82;3.67;;;11.20;92.00;;;;;;5111244;27;20044;-61
2022/11/09 08:26:05;;;;;;;7.00;3.78;;;11.20;91.90;;;;;;5105223;27;20122;-67
2022/11/09 08:28:32;;;;;;;10.15;3.72;;;11.30;91.90;;;;;;5112014;27;20054;-66
2022/11/09 08:31:02;;;;;;;8.48;3.70;;;11.30;91.90;;;;;;5109416;27;20050;-61
2022/11/09 08:33:31;;;;;;;6.68;3.95;;;11.40;91.90;;;;;;5109466;27;20054;-62
2022/11/09 08:35:59;;;;;;;6.18;3.20;;;11.40;91.80;;;;;;5105660;27;20054;-62
2022/11/09 08:38:26;;;;;;;6.68;3.40;;;11.40;91.90;;;;;;5108397;27;20050;-62
2022/11/09 08:40:57;;;;;;;6.88;3.25;;;11.50;91.90;;;;;;5108228;27;20052;-61
2022/11/09 08:43:24;;;;;;;6.90;3.53;;;11.50;91.80;;;;;;5114646;27;20058;-60
2022/11/09 08:45:54;;;;;;;7.00;3.10;;;11.50;91.80;;;;;;5108991;27;20051;-60
2022/11/09 08:48:20;;;;;;;7.18;3.55;;;11.60;92.00;;;;;;5111019;27;20564;-61
2022/11/09 08:50:52;;;;;;;9.52;4.93;;;11.60;92.10;;;;;;5111079;27;20379;-67
2022/11/09 08:53:20;;;;;;;12.88;5.80;;;11.60;92.60;;;;;;5108886;27;20083;-67
2022/11/09 08:55:47;;;;;;;7.50;4.30;;;11.70;92.50;;;;;;5105642;27;20051;-60
2022/11/09 08:58:14;;;;;;;10.85;5.05;;;11.70;92.30;;;;;;5111338;27;20080;-62
2022/11/09 09:00:42;;;;;;;9.80;5.10;;;11.80;92.10;;;;;;5108587;27;20130;-61
2022/11/09 09:03:09;;;;;;;9.80;5.07;;;11.70;91.70;;;;;;5108810;27;20050;-61
2022/11/09 09:05:36;;;;;;;8.48;4.78;;;11.80;91.50;;;;;;5104617;27;20059;-60
2022/11/09 09:08:05;;;;;;;8.43;4.47;;;11.90;91.60;;;;;;5104934;27;20040;-60
2022/11/09 09:10:34;;;;;;;9.30;4.75;;;11.90;91.70;;;;;;5108858;27;20047;-61
2022/11/09 09:13:02;;;;;;;10.00;4.90;;;11.90;91.80;;;;;;5105846;27;20044;-61
2022/11/09 09:15:31;;;;;;;10.07;4.63;;;12.00;91.70;;;;;;5104020;27;21070;-61
2022/11/09 09:18:00;;;;;;;9.88;4.82;;;12.00;91.70;;;;;;5110868;27;20047;-60
2022/11/09 09:20:31;;;;;;;13.80;8.38;;;12.00;91.70;;;;;;5103996;27;20754;-60
2022/11/09 09:22:59;;;;;;;13.48;8.18;;;12.10;92.60;;;;;;5103430;27;20770;-61
2022/11/09 09:25:26;;;;;;;14.02;9.35;;;12.00;92.30;;;;;;5104663;27;20098;-61
2022/11/09 09:27:54;;;;;;;18.65;10.35;;;12.10;92.30;;;;;;5111878;27;20066;-61
2022/11/09 09:30:22;;;;;;;16.80;10.32;;;12.20;92.50;;;;;;5105583;27;20040;-61
2022/11/09 09:32:49;;;;;;;17.55;10.35;;;12.10;92.50;;;;;;5109057;27;20044;-61
2022/11/09 09:35:16;;;;;;;14.00;9.10;;;12.20;92.70;;;;;;5100631;27;20068;-61
2022/11/09 09:37:43;;;;;;;13.65;8.82;;;12.20;92.30;;;;;;5109146;27;20040;-61
2022/11/09 09:40:23;;;;;;;14.00;8.50;;;12.20;92.20;;;;;;5092761;27;20413;-61
2022/11/09 09:42:53;;;;;;;11.55;7.40;;;12.30;92.00;;;;;;5110493;27;20123;-62
2022/11/09 09:45:24;;;;;;;12.50;6.63;;;12.40;92.50;;;;;;5118009;27;20432;-62
2022/11/09 09:47:57;;;;;;;8.38;5.28;;;12.40;92.80;;;;;;5126171;27;20047;-62
2022/11/09 09:50:28;;;;;;;13.10;4.68;;;12.50;92.90;;;;;;5107985;27;20410;-61
2022/11/09 09:53:00;;;;;;;5.68;3.13;;;12.60;92.60;;;;;;5111682;27;20055;-61
2022/11/09 09:55:35;;;;;;;4.97;2.20;;;12.60;92.50;;;;;;5108560;27;20074;-61
2022/11/09 09:58:09;;;;;;;3.95;1.98;;;12.60;92.70;;;;;;5107793;27;20047;-61
2022/11/09 10:00:38;;;;;;;3.65;1.58;;;12.70;92.50;;;;;;5110407;27;20443;-60
2022/11/09 10:03:05;;;;;;;2.42;1.25;;;12.70;92.30;;;;;;5108011;27;20036;-62
2022/11/09 10:05:44;;;;;;;2.90;1.10;;;12.80;92.20;;;;;;5104487;27;20056;-60
2022/11/09 10:08:20;;;;;;;2.40;0.98;;;12.90;91.90;;;;;;5107193;27;20130;-61
2022/11/09 10:10:57;;;;;;;2.90;0.95;;;12.90;91.70;;;;;;5107874;27;20050;-61
2022/11/09 10:13:42;;;;;;;1.65;0.80;;;13.00;91.60;;;;;;5105932;27;20054;-61
2022/11/09 10:16:19;;;;;;;1.95;0.80;;;13.10;91.60;;;;;;5102575;27;20055;-61
2022/11/09 10:19:01;;;;;;;1.30;0.75;;;13.10;91.30;;;;;;5108204;27;20055;-63
2022/11/09 10:21:42;;;;;;;1.25;0.65;;;13.20;91.20;;;;;;5106600;27;20047;-62
2022/11/09 10:24:24;;;;;;;2.38;0.70;;;13.20;91.20;;;;;;5104126;27;20158;-61
2022/11/09 10:26:52;;;;;;;1.90;0.77;;;13.20;91.30;;;;;;5103889;28;20053;-60
2022/11/09 10:29:23;;;;;;;2.20;0.68;;;13.20;91.10;;;;;;5101252;27;20130;-61
2022/11/09 10:31:54;;;;;;;1.48;0.63;;;13.30;91.20;;;;;;5102030;27;20043;-62
2022/11/09 10:34:25;;;;;;;1.52;0.75;;;13.30;90.90;;;;;;5107319;27;20046;-62
2022/11/09 10:36:59;;;;;;;1.75;0.60;;;13.40;90.90;;;;;;5106815;27;20051;-60
2022/11/09 10:39:28;;;;;;;1.80;0.75;;;13.40;90.50;;;;;;5105484;27;20039;-61
2022/11/09 10:42:14;;;;;;;1.80;0.70;;;13.50;90.50;;;;;;5108407;27;20447;-61
2022/11/09 10:45:11;;;;;;;1.98;0.60;;;13.50;90.50;;;;;;5109578;27;20051;-61
2022/11/09 10:47:59;;;;;;;1.48;0.68;;;13.60;90.40;;;;;;5106354;27;20058;-60
2022/11/09 10:50:48;;;;;;;1.75;0.80;;;13.70;90.10;;;;;;5099628;27;20055;-61
2022/11/09 10:53:34;;;;;;;1.50;0.75;;;13.70;90.20;;;;;;5109056;27;20059;-61
2022/11/09 10:56:20;;;;;;;1.65;0.68;;;13.70;90.00;;;;;;5106830;27;20108;-61
2022/11/09 10:59:37;;;;;;;3.13;1.05;;;13.60;89.90;;;;;;5107615;27;20059;-61
2022/11/09 11:02:43;;;;;;;0.73;0.47;;;13.60;90.00;;;;;;5105157;27;20173;-61
2022/11/09 11:05:32;;;;;;;1.88;0.50;;;13.70;89.80;;;;;;5105155;27;20513;-60
2022/11/09 11:08:25;;;;;;;0.90;0.30;;;13.70;89.70;;;;;;5108870;27;20050;-59
2022/11/09 11:11:25;;;;;;;2.75;0.80;;;13.80;89.60;;;;;;5109188;27;20051;-60
2022/11/09 11:14:16;;;;;;;1.58;0.57;;;13.90;89.40;;;;;;5106550;27;20101;-60
2022/11/09 11:17:02;;;;;;;2.53;0.50;;;13.90;89.40;;;;;;5105823;27;20401;-60
2022/11/09 11:19:51;;;;;;;2.47;0.80;;;14.00;89.40;;;;;;5107316;27;20406;-60
2022/11/09 11:22:37;;;;;;;1.27;0.40;;;14.00;89.10;;;;;;5106203;27;20050;-60
2022/11/09 11:25:25;;;;;;;2.35;0.85;;;14.10;89.10;;;;;;5093115;27;20166;-61
2022/11/09 11:28:17;;;;;;;1.60;0.60;;;14.10;88.50;;;;;;5106206;27;20058;-60
2022/11/09 11:31:04;;;;;;;0.90;0.60;;;14.20;88.80;;;;;;5106119;27;20423;-61
2022/11/09 11:33:49;;;;;;;3.75;0.70;;;14.30;88.60;;;;;;5095328;27;20054;-61
2022/11/09 11:36:48;;;;;;;1.75;0.60;;;14.30;88.60;;;;;;5106812;27;20665;-60
2022/11/09 11:39:48;;;;;;;1.77;0.50;;;14.30;88.60;;;;;;5102603;27;20054;-61
2022/11/09 11:42:41;;;;;;;;;;;14.30;88.50;;;;;;5104597;27;20051;-61
2022/11/09 11:45:32;;;;;;;0.85;0.32;;;14.30;88.30;;;;;;5088249;27;19931;-60
2022/11/09 11:48:44;;;;;;;1.98;0.57;;;14.30;88.40;;;;;;5105565;27;20071;-60
2022/11/09 11:51:40;;;;;;;2.58;0.60;;;14.30;87.90;;;;;;5095694;27;20112;-60
2022/11/09 11:54:37;;;;;;;2.60;0.60;;;14.30;87.80;;;;;;5105961;27;20529;-60
2022/11/09 11:57:34;;;;;;;1.17;0.63;;;14.30;87.80;;;;;;5106448;27;20050;-60
2022/11/09 12:00:21;;;;;;;1.95;0.88;;;14.30;87.40;;;;;;5104769;27;20055;-60
2022/11/09 12:03:27;;;;;;;2.05;0.70;;;14.40;87.30;;;;;;5105949;27;20207;-61
2022/11/09 12:06:38;;;;;;;2.90;0.57;;;14.30;87.60;;;;;;5106738;27;20059;-60
2022/11/09 12:09:37;;;;;;;2.88;0.50;;;14.30;87.70;;;;;;5099471;27;20189;-60
2022/11/09 12:12:33;;;;;;;4.70;0.70;;;14.30;87.20;;;;;;5105796;27;20667;-61
2022/11/09 12:15:28;;;;;;;1.42;0.50;;;14.30;87.40;;;;;;5103776;27;20054;-60
2022/11/09 12:18:24;;;;;;;2.42;0.50;;;14.40;87.10;;;;;;5104770;27;20062;-61
2022/11/09 12:21:17;;;;;;;1.52;0.52;;;14.40;86.40;;;;;;5106141;27;20173;-60
2022/11/09 12:24:15;;;;;;;2.17;0.85;;;14.40;86.20;;;;;;5106373;27;20134;-60
2022/11/09 12:27:29;;;;;;;1.48;0.55;;;14.40;86.40;;;;;;5106505;28;20050;-61
2022/11/09 12:30:17;;;;;;;1.73;0.40;;;14.30;86.40;;;;;;5120440;27;20042;-59
2022/11/09 12:33:07;;;;;;;1.10;0.50;;;14.20;86.30;;;;;;5124759;27;20107;-61
2022/11/09 12:35:56;;;;;;;1.70;0.70;;;14.20;86.20;;;;;;5107067;27;20513;-61
2022/11/09 12:38:52;;;;;;;2.03;0.70;;;14.20;86.60;;;;;;5107321;27;20052;-61
2022/11/09 12:41:39;;;;;;;3.58;0.70;;;14.30;86.00;;;;;;5106466;27;20054;-60
2022/11/09 12:44:30;;;;;;;3.58;0.77;;;14.30;85.70;;;;;;5109765;27;20465;-61
2022/11/09 12:47:21;;;;;;;1.08;0.47;;;14.40;85.70;;;;;;5109497;27;20422;-61
2022/11/09 12:50:13;;;;;;;1.88;0.50;;;14.40;85.70;;;;;;5110044;27;20070;-61
2022/11/09 12:53:01;;;;;;;3.72;0.73;;;14.40;86.00;;;;;;5111045;27;20634;-61
2022/11/09 12:55:51;;;;;;;2.45;0.68;;;14.40;86.00;;;;;;5108277;27;20062;-61
2022/11/09 12:58:38;;;;;;;4.25;0.80;;;14.40;85.90;;;;;;5110990;27;20173;-60
2022/11/09 13:01:50;;;;;;;3.17;0.70;;;14.40;85.70;;;;;;5109885;27;20100;-61
2022/11/09 13:04:36;;;;;;;2.72;0.70;;;14.40;85.80;;;;;;5091437;27;20166;-61
2022/11/09 13:07:41;;;;;;;1.85;0.50;;;14.50;85.70;;;;;;5103812;27;20151;-61
2022/11/09 13:10:30;;;;;;;2.70;0.70;;;14.50;85.80;;;;;;5104050;27;20063;-61
2022/11/09 13:13:22;;;;;;;2.15;0.77;;;14.50;86.00;;;;;;5105374;27;20047;-61
2022/11/09 13:16:31;;;;;;;2.95;0.60;;;14.50;85.90;;;;;;5106269;27;20066;-61
2022/11/09 13:19:53;;;;;;;3.17;0.60;;;14.50;86.00;;;;;;5106918;27;20113;-61
2022/11/09 13:22:58;;;;;;;1.80;0.45;;;14.50;85.90;;;;;;5106812;27;20128;-62